Racecast

Robert Herrera

Mountain View (CA) · 12 · NORTHERNCO D4A4A · Compare head to head

Athlete rating 114.6 2024 TF season
Best race 116.0 TF
Races 47
Seasons 4 2021 — 2024

RankedNation #36152·CO #807·CO D4A #395·NORTHERN #14·Team #84 ?

Speed rating — all races

Cross Country

XC speed rating

2023 XC 111.2

Mountain View (CA) · Grade 12

Date Meet Event Result Place Rating Difficulty PR/SR Flags
2023-10-19 Monfort Park 5000m 18:33.4 39th · 1st on team 113.7 +0.019 ★CR SR CSR
2023-09-03 Little America Golf Course 5000m 19:04.8 94th · 2nd on team 114.6 +0.065 ★CR R SR CSR RSR
2023-08-19 Berthoud High School 3218m 12:06.6 44th · 1st on team 105.2 +0.007 ★PR ★CR SR CSR RSR

2022 XC 110.5

Mountain View (CA) · Grade 11

Date Meet Event Result Place Rating Difficulty PR/SR Flags
2022-10-20 Lyons Middle/High School 5000m 19:22.7 33rd · 2nd on team 110.8 +0.046 ★CR CSR
2022-10-12 Riverside Park 5000m 18:33 58th · 3rd on team 112.5 +0.005 ★PR ★CR R SR CSR RSR
2022-09-17 Lyons Middle/High School 5000m 19:27.4 180th · 2nd on team 111.7 +0.046 CR R CSR RSR
2022-09-02 Jason Sams Memorial Park 5000m 20:05.7 19th · 3rd on team 107.9 +0.046 ★CR CSR
2022-08-27 Fort Collins High School 5000m 19:27 68th · 2nd on team 109.4 +0.023 PR ★CR SR CSR RSR

2021 XC 107.5

Mountain View (CA) · Grade 10

Date Meet Event Result Place Rating Difficulty PR/SR Flags
2021-10-21 Lyons Middle/High School 5000m 19:54.6 75th · 7th on team 110.2 +0.046 CR CSR
2021-10-13 Riverside Park 5000m 19:41.9 63rd · 7th on team 106.9 +0.005 PR CR SR CSR
2021-10-02 Mead High School 5000m 19:49.4 92nd · 8th on team 107.0 +0.011 ★CR CSR
2021-09-17 North Lake Park 5000m 20:08 87th · 5th on team 107.5 +0.041 ★CR CSR
2021-09-11 Heritage High School 5000m 19:43.1 130th · 4th on team 108.4 -0.001 PR ★CR SR CSR
2021-09-03 Little America Golf Course 5000m 19:59.3 98th · 7th on team 110.6 +0.065 PR CR R SR CSR RSR
2021-08-27 Jason Sams Memorial Park 5000m 21:35.7 35th · 8th on team 101.6 +0.046 CR CSR
2021-08-21 Spring Canyon Park 5000m 20:01 61st · 4th on team 107.8 +0.037 PR ★CR R SR CSR RSR

Track & Field

TF speed rating

2024 TF 112.6

Mountain View (CA) · Grade 12

Date Meet Event Result Place Rating Difficulty PR/SR Flags
2024-05-11 Teddy's Last Chance Qualifier 1600m 4:57.29 34th · 2nd on team 115.1 -0.014 ★PR SR
2024-04-29 Randall Hess Roughrider Invitational 1600m 5:09.01 45th · 2nd on team 110.9 -0.014
2024-04-29 Randall Hess Roughrider Invitational 3200m 10:46.29 15th · 1st on team 114.5 -0.014
2024-04-04 Altitude Running Invitational 3200m 10:45.24 12th · 1st on team 116.0 -0.009 ★PR ★R SR RSR
2024-04-04 Altitude Running Invitational 1600m 5:11.43 29th · 2nd on team 110.8 -0.009
2024-03-29 Spartan Spike 1600m 5:06.97 3rd · 1st on team 112.8 -0.006
2024-03-22 Race results → 3200m 10:47.94 19th · 1st on team 113.0 PR SR RSR
2024-03-22 Race results → 1600m 5:05.74 36th · 1st on team 110.8 PR SR
2024-03-22 Race results → 800m 2:14.87 52nd · 1st on team 112.7 ★PR SR
2024-02-11 USATF Colorado Indoor Championship 800m 2:23.59 11th · 3rd on team 109.3 -0.004 PR SR RSR

2023 TF 111.8

Mountain View (CA) · Grade 11

Date Meet Event Result Place Rating Difficulty PR/SR Flags
2023-05-05 Longs Peak/NCAC/Mile High League Meets 1600m 5:09.87 15th · 1st on team 110.8 -0.015
2023-04-29 Ram Charger Invitational 1600m 5:06.05 32nd · 1st on team 112.7 -0.011 PR SR
2023-04-14 KC Logan R2J Invitational 1600m 5:09.5 12th · 1st on team 112.1 -0.006
2023-04-07 Birds of Prey Invitational 400m 57.72 13th · 1st on team +0.001 ★PR SR
2023-04-07 Birds of Prey Invitational 1600m 5:06.63 14th · 2nd on team 113.4 +0.001 PR R SR RSR
2023-04-01 University Bulldog Invitational 1600m 5:13.08 15th · 3rd on team 110.0 -0.011
2023-03-10 Max Marr Invitational 1600m 5:10.34 24th · 1st on team 111.6 -0.006 PR SR RSR

2022 TF 105.5

Mountain View (CA) · Grade 10

Date Meet Event Result Place Rating Difficulty PR/SR Flags
2022-05-13 John Martin Invitational 1600m 5:25.43 20th · 3rd on team 106.6 -0.011
2022-05-07 Longs Peak/NCAC/Mile High League Meets 3200m 12:20.34 15th · 2nd on team 101.4 -0.015
2022-05-02 NoCo Series #3 1600m 5:19.11 32nd · 1st on team 109.2 -0.008 PR SR RSR
2022-04-16 Mountain Range Mustang Invitational 3200m 11:45.68 27th · 1st on team 106.5 -0.006 PR SR
2022-04-08 Greeley Twilight Invitational 800m 2:25.43 19th · 3rd on team 107.0 -0.011 PR SR RSR
2022-04-01 Erie Tiger Twilight Invitational 1600m 5:37.49 73rd · 2nd on team 103.3 -0.001
2022-03-25 Max Marr Invitational 1600m 5:34.99 29th · 3rd on team 104.1 -0.006 SR RSR

2021 TF 103.9

Mountain View (CA) · Grade 9

Date Meet Event Result Place Rating Difficulty PR/SR Flags
2021-06-17 NOCO Series #4 1600m 5:51.5 17th · 4th on team 99.9 -0.005
2021-06-12 Longs Peak/NCAC/Mile High League Meet 3200m 11:54.47 15th · 1st on team 105.5 -0.015 PR SR
2021-06-04 NOCO Series #3 1600m 5:34.68 21st · 2nd on team 104.8 -0.006
2021-06-01 No-Name Invitational 3200m 12:26.4 11th · 2nd on team 101.0 -0.015
2021-05-27 NOCO Series Meet #2 1600m 5:33.37 41st · 3rd on team 105.0 -0.008
2021-05-21 Randall Hess Invitational 3200m 11:59.2 47th · 3rd on team 104.9 -0.014 PR SR
2021-05-14 Max Marr Invitational 1600m 5:29.12 20th · 2nd on team 106.4 -0.006 PR R SR RSR